Time;durP1;ratioP1;P1;durP2;ratioP2;P2;SDS_P1;SDS_P2;PMS_P1;PMS_P2;Temp;Humidity;BMP_temperature;BMP_pressure;BME280_temperature;BME280_humidity;BME280_pressure;Samples;Min_cycle;Max_cycle;Signal;HPM_P1;HPM_P2
2023/05/30 00:01:39;;;;;;;12.30;2.72;;;;;;;;;;5003366;28;20060;-79
2023/05/30 00:04:05;;;;;;;10.80;2.47;;;;;;;;;;5005999;28;20115;-76
2023/05/30 00:06:32;;;;;;;17.88;2.42;;;;;;;;;;5002978;28;20041;-76
2023/05/30 00:09:00;;;;;;;12.02;2.50;;;;;;;;;;4996704;28;20415;-74
2023/05/30 00:11:28;;;;;;;13.57;2.28;;;;;;;;;;5004639;28;20144;-80
2023/05/30 00:13:55;;;;;;;9.68;2.90;;;;;;;;;;5003465;28;20286;-81
2023/05/30 00:16:22;;;;;;;14.75;2.47;;;;;;;;;;5000445;28;20136;-73
2023/05/30 00:18:48;;;;;;;9.10;2.05;;;;;;;;;;5012744;28;20099;-76
2023/05/30 00:21:17;;;;;;;12.65;2.88;;;;;;;;;;4999476;28;20057;-74
2023/05/30 00:23:45;;;;;;;10.32;2.38;;;;;;;;;;5010761;28;20053;-81
2023/05/30 00:26:12;;;;;;;9.88;2.83;;;10.90;94.00;;;;;;5011082;28;20115;-81
2023/05/30 00:28:38;;;;;;;13.00;2.83;;;10.80;94.20;;;;;;4988479;28;20529;-79
2023/05/30 00:31:07;;;;;;;11.27;3.10;;;;;;;;;;5009509;28;20545;-77
2023/05/30 00:33:33;;;;;;;12.65;2.72;;;;;;;;;;4995843;28;20052;-77
2023/05/30 00:36:00;;;;;;;10.40;2.83;;;;;;;;;;5001972;28;20835;-78
2023/05/30 00:38:26;;;;;;;11.80;2.60;;;;;;;;;;5009895;28;20057;-74
2023/05/30 00:40:52;;;;;;;11.10;2.50;;;;;;;;;;5007983;28;20053;-71
2023/05/30 00:43:18;;;;;;;14.30;3.17;;;;;;;;;;5008869;28;20306;-75
2023/05/30 00:45:45;;;;;;;16.33;3.75;;;;;;;;;;5007791;28;20119;-75
2023/05/30 00:48:11;;;;;;;12.75;3.17;;;;;;;;;;4994729;28;20062;-77
2023/05/30 00:50:39;;;;;;;16.42;3.25;;;;;;;;;;5011477;28;20037;-79
2023/05/30 00:53:05;;;;;;;11.98;2.63;;;10.90;94.10;;;;;;4991114;28;20089;-81
2023/05/30 00:55:32;;;;;;;14.68;4.15;;;10.70;94.20;;;;;;4995679;28;20045;-78
2023/05/30 00:57:58;;;;;;;12.52;3.22;;;;;;;;;;5007845;28;20075;-78
2023/05/30 01:00:28;;;;;;;10.68;2.78;;;;;;;;;;5006769;28;20053;-75
2023/05/30 01:02:59;;;;;;;18.75;3.70;;;;;;;;;;5003874;28;20045;-74
2023/05/30 01:05:28;;;;;;;11.55;3.25;;;10.90;93.50;;;;;;5011633;28;20603;-79
2023/05/30 01:07:55;;;;;;;14.98;3.42;;;;;;;;;;4976354;28;20065;-77
2023/05/30 01:10:21;;;;;;;8.40;3.15;;;;;;;;;;4996141;28;20100;-74
2023/05/30 01:13:00;;;;;;;10.48;2.97;;;;;;;;;;5003801;28;20049;-74
2023/05/30 01:15:32;;;;;;;9.82;2.70;;;10.80;93.50;;;;;;4993402;28;20128;-80
2023/05/30 01:18:13;;;;;;;11.63;2.78;;;10.70;93.60;;;;;;4993520;28;20053;-78
2023/05/30 01:20:44;;;;;;;11.95;2.25;;;10.80;93.50;;;;;;4994299;28;20085;-78
2023/05/30 01:23:39;;;;;;;11.70;2.55;;;10.80;93.80;;;;;;4995358;28;20140;-74
2023/05/30 01:26:07;;;;;;;11.95;2.70;;;10.80;93.70;;;;;;5011447;28;20491;-74
2023/05/30 01:28:36;;;;;;;19.92;3.28;;;10.80;94.00;;;;;;5011276;28;20057;-76
2023/05/30 01:31:03;;;;;;;8.13;2.00;;;;;;;;;;4997731;28;20577;-76
2023/05/30 01:33:29;;;;;;;9.60;2.08;;;;;;;;;;5000041;28;20046;-73
2023/05/30 01:35:56;;;;;;;8.50;3.35;;;;;;;;;;4990877;28;20054;-74
2023/05/30 01:38:22;;;;;;;8.88;2.38;;;;;;;;;;5005182;28;20056;-79
2023/05/30 01:40:59;;;;;;;9.27;2.58;;;10.80;93.40;;;;;;4994103;28;20506;-72
2023/05/30 01:43:25;;;;;;;9.32;3.28;;;;;;;;;;5007695;28;20049;-78
2023/05/30 01:46:19;;;;;;;9.07;2.03;;;10.70;93.50;;;;;;5012082;28;20764;-78
2023/05/30 01:48:45;;;;;;;17.45;2.63;;;;;;;;;;5005697;28;20080;-71
2023/05/30 01:51:15;;;;;;;10.07;2.03;;;10.30;93.70;;;;;;5014504;28;20568;-72
2023/05/30 01:53:50;;;;;;;14.15;2.45;;;10.30;93.80;;;;;;4997418;28;20410;-74
2023/05/30 01:56:18;;;;;;;8.77;1.80;;;10.70;94.00;;;;;;5016014;28;20045;-75
2023/05/30 01:58:47;;;;;;;13.60;2.50;;;10.60;94.20;;;;;;5009915;28;20049;-78
2023/05/30 02:01:15;;;;;;;13.85;2.60;;;10.70;93.70;;;;;;4993856;28;20136;-70
2023/05/30 02:03:41;;;;;;;13.45;2.35;;;;;;;;;;5017802;28;20592;-75
2023/05/30 02:06:07;;;;;;;10.32;2.47;;;;;;;;;;5009512;28;20053;-73
2023/05/30 02:08:33;;;;;;;8.95;2.47;;;;;;;;;;5011701;28;20045;-74
2023/05/30 02:10:59;;;;;;;8.55;2.58;;;;;;;;;;5014038;28;20196;-73
2023/05/30 02:13:25;;;;;;;12.02;2.70;;;;;;;;;;4986272;28;20065;-70
2023/05/30 02:15:52;;;;;;;12.15;3.90;;;;;;;;;;5015897;28;20057;-75
2023/05/30 02:18:19;;;;;;;13.13;3.20;;;;;;;;;;5013155;28;20056;-73
2023/05/30 02:20:45;;;;;;;7.80;2.47;;;;;;;;;;5015651;28;20049;-73
2023/05/30 02:23:11;;;;;;;9.35;2.67;;;;;;;;;;4996570;28;20095;-77
2023/05/30 02:25:38;;;;;;;11.52;2.58;;;;;;;;;;5010154;28;20045;-79
2023/05/30 02:28:04;;;;;;;12.68;2.42;;;;;;;;;;5010763;28;20114;-76
2023/05/30 02:30:30;;;;;;;13.82;3.67;;;;;;;;;;5011831;28;20441;-76
2023/05/30 02:32:56;;;;;;;10.88;2.80;;;;;;;;;;5004649;28;20069;-70
2023/05/30 02:35:22;;;;;;;16.98;2.95;;;;;;;;;;5011569;28;20045;-75
2023/05/30 02:37:48;;;;;;;10.95;2.70;;;;;;;;;;5007007;28;20100;-75
2023/05/30 02:40:15;;;;;;;10.48;2.55;;;;;;;;;;5005745;28;20875;-79
2023/05/30 02:42:41;;;;;;;8.82;2.85;;;;;;;;;;5016846;28;20106;-74
2023/05/30 02:45:07;;;;;;;15.43;4.20;;;;;;;;;;5011054;28;20502;-72
2023/05/30 02:47:34;;;;;;;8.02;2.03;;;;;;;;;;5012228;28;20071;-78
2023/05/30 02:50:00;;;;;;;8.50;1.70;;;;;;;;;;4997391;28;20061;-74
2023/05/30 02:52:26;;;;;;;13.95;3.00;;;;;;;;;;4999636;28;20396;-73
2023/05/30 02:54:52;;;;;;;10.90;2.97;;;;;;;;;;5014788;28;20042;-69
2023/05/30 02:57:22;;;;;;;10.95;3.08;;;;;;;;;;5010376;28;20057;-78
2023/05/30 02:59:48;;;;;;;12.60;2.85;;;;;;;;;;5014276;28;20059;-78
2023/05/30 03:02:14;;;;;;;12.10;2.63;;;;;;;;;;5014373;28;20261;-77
2023/05/30 03:04:45;;;;;;;9.48;3.17;;;;;;;;;;4999886;28;20096;-72
2023/05/30 03:07:12;;;;;;;8.82;3.33;;;;;;;;;;5006575;28;20061;-76
2023/05/30 03:09:38;;;;;;;12.65;2.45;;;;;;;;;;5003153;28;20060;-74
2023/05/30 03:12:05;;;;;;;14.48;3.45;;;;;;;;;;5011064;28;20120;-75
2023/05/30 03:14:31;;;;;;;8.65;3.45;;;;;;;;;;5013919;28;20123;-72
2023/05/30 03:16:57;;;;;;;12.10;2.83;;;;;;;;;;4991916;28;20058;-71
2023/05/30 03:19:23;;;;;;;9.20;2.50;;;;;;;;;;5007396;28;20087;-71
2023/05/30 03:21:49;;;;;;;25.08;3.92;;;;;;;;;;5011638;28;20049;-73
2023/05/30 03:24:16;;;;;;;11.20;3.22;;;;;;;;;;5009625;28;20053;-76
2023/05/30 03:26:42;;;;;;;13.18;3.63;;;;;;;;;;4997867;28;20506;-77
2023/05/30 03:29:08;;;;;;;9.07;2.88;;;;;;;;;;4997948;28;20045;-74
2023/05/30 03:31:35;;;;;;;10.07;2.95;;;;;;;;;;5004221;28;20066;-71
2023/05/30 03:34:01;;;;;;;9.20;2.55;;;;;;;;;;5012656;28;20064;-74
2023/05/30 03:36:28;;;;;;;11.95;2.88;;;;;;;;;;5000175;28;20132;-70
2023/05/30 03:38:54;;;;;;;9.88;2.65;;;;;;;;;;4985371;28;20050;-75
2023/05/30 03:41:21;;;;;;;9.95;2.70;;;;;;;;;;5003753;28;20533;-72
2023/05/30 03:43:47;;;;;;;8.43;2.40;;;;;;;;;;5000177;28;20080;-75
2023/05/30 03:46:19;;;;;;;11.20;2.53;;;;;;;;;;5013737;28;20422;-74
2023/05/30 03:48:46;;;;;;;21.67;4.78;;;;;;;;;;5013453;28;20045;-70
2023/05/30 03:51:12;;;;;;;13.23;3.00;;;;;;;;;;4997245;28;20057;-72
2023/05/30 03:53:39;;;;;;;12.30;2.55;;;;;;;;;;5010417;28;20096;-76
2023/05/30 03:56:06;;;;;;;12.10;3.15;;;;;;;;;;5001937;28;20175;-79
2023/05/30 03:58:32;;;;;;;9.68;2.47;;;;;;;;;;5000423;28;20064;-71
2023/05/30 04:01:01;;;;;;;14.93;2.67;;;;;;;;;;5002710;28;20045;-73
2023/05/30 04:03:28;;;;;;;11.20;3.08;;;;;;;;;;4979393;28;20111;-73
2023/05/30 04:06:01;;;;;;;8.27;2.97;;;;;;;;;;4999840;28;20064;-79
2023/05/30 04:08:27;;;;;;;13.02;3.40;;;;;;;;;;4996072;28;20057;-72
2023/05/30 04:10:53;;;;;;;16.02;2.92;;;;;;;;;;5012400;28;20160;-72
2023/05/30 04:13:19;;;;;;;13.25;4.80;;;;;;;;;;4996902;28;20053;-69
2023/05/30 04:15:46;;;;;;;13.50;2.97;;;;;;;;;;5013447;28;20048;-77
2023/05/30 04:18:12;;;;;;;12.57;4.20;;;;;;;;;;5010733;28;20041;-78
2023/05/30 04:20:38;;;;;;;16.90;3.55;;;;;;;;;;5012043;28;20057;-80
2023/05/30 04:23:04;;;;;;;9.30;2.33;;;;;;;;;;5012815;28;20061;-72
2023/05/30 04:25:31;;;;;;;8.60;2.80;;;;;;;;;;5006649;28;20905;-79
2023/05/30 04:27:58;;;;;;;14.23;3.15;;;;;;;;;;4997028;28;20104;-78
2023/05/30 04:30:24;;;;;;;11.18;2.80;;;;;;;;;;4991850;28;20081;-77
2023/05/30 04:32:50;;;;;;;15.98;3.13;;;;;;;;;;5011078;28;20069;-74
2023/05/30 04:35:16;;;;;;;13.23;2.53;;;;;;;;;;5003320;28;20471;-75
2023/05/30 04:37:44;;;;;;;14.20;4.10;;;;;;;;;;4995644;28;20045;-71
2023/05/30 04:40:12;;;;;;;16.90;3.65;;;;;;;;;;5008561;28;20057;-74
2023/05/30 04:42:39;;;;;;;11.10;2.63;;;;;;;;;;5011845;28;20080;-77
2023/05/30 04:45:07;;;;;;;12.65;3.85;;;;;;;;;;5012095;28;20056;-72
2023/05/30 04:47:33;;;;;;;13.52;3.05;;;;;;;;;;5007271;28;20056;-75
2023/05/30 04:50:02;;;;;;;9.60;2.00;;;;;;;;;;5007219;28;20046;-76
2023/05/30 04:52:29;;;;;;;10.52;2.10;;;;;;;;;;4999911;28;20362;-76
2023/05/30 04:54:56;;;;;;;11.07;2.90;;;;;;;;;;5009790;28;20060;-76
2023/05/30 04:57:22;;;;;;;12.40;3.35;;;;;;;;;;5005013;28;20049;-80
2023/05/30 04:59:48;;;;;;;12.07;2.47;;;;;;;;;;5010069;28;20049;-73
2023/05/30 05:02:14;;;;;;;9.55;2.45;;;;;;;;;;4996637;28;20050;-71
2023/05/30 05:04:40;;;;;;;10.45;2.55;;;;;;;;;;5006834;28;20068;-70
2023/05/30 05:07:07;;;;;;;12.43;2.50;;;;;;;;;;4992209;28;20181;-78
2023/05/30 05:09:33;;;;;;;19.65;3.33;;;;;;;;;;5009931;28;20045;-75
2023/05/30 05:12:01;;;;;;;14.43;3.92;;;;;;;;;;5010992;28;20581;-76
2023/05/30 05:14:27;;;;;;;12.30;3.05;;;;;;;;;;5002992;28;20871;-73
2023/05/30 05:16:53;;;;;;;10.93;2.35;;;;;;;;;;5011626;28;20111;-74
2023/05/30 05:19:19;;;;;;;9.77;2.60;;;;;;;;;;5011321;28;20080;-76
2023/05/30 05:21:46;;;;;;;16.73;3.75;;;;;;;;;;5000683;28;20210;-69
2023/05/30 05:24:12;;;;;;;16.67;3.20;;;;;;;;;;5009436;28;20057;-75
2023/05/30 05:26:38;;;;;;;11.38;2.10;;;;;;;;;;5004049;28;20045;-75
2023/05/30 05:29:04;;;;;;;24.27;3.58;;;;;;;;;;5000779;28;20143;-74
2023/05/30 05:31:32;;;;;;;10.43;2.10;;;;;;;;;;5001550;28;20104;-79
2023/05/30 05:33:59;;;;;;;13.20;2.58;;;;;;;;;;5000351;28;20053;-77
2023/05/30 05:36:25;;;;;;;6.28;2.20;;;;;;;;;;5011390;28;20054;-78
2023/05/30 05:38:51;;;;;;;9.40;2.00;;;;;;;;;;4994902;28;20500;-75
2023/05/30 05:41:18;;;;;;;10.48;3.83;;;;;;;;;;5007901;28;20103;-77
2023/05/30 05:43:44;;;;;;;14.23;3.25;;;;;;;;;;5010311;28;20123;-78
2023/05/30 05:46:11;;;;;;;12.52;2.38;;;;;;;;;;5011163;28;20053;-79
2023/05/30 05:48:38;;;;;;;15.88;3.78;;;;;;;;;;4994029;28;20063;-79
2023/05/30 05:51:04;;;;;;;12.95;4.07;;;;;;;;;;5011605;28;20097;-74
2023/05/30 05:53:31;;;;;;;14.95;2.65;;;;;;;;;;5011164;28;20056;-75
2023/05/30 05:55:57;;;;;;;12.88;2.33;;;;;;;;;;5011624;28;20045;-71
2023/05/30 05:58:24;;;;;;;11.85;2.35;;;;;;;;;;5010960;28;20156;-76
2023/05/30 06:00:51;;;;;;;11.68;2.35;;;;;;;;;;5011284;28;20140;-77
2023/05/30 06:03:17;;;;;;;14.05;3.08;;;;;;;;;;4995080;28;20053;-79
2023/05/30 06:05:43;;;;;;;12.38;4.20;;;;;;;;;;4996817;28;20060;-78
2023/05/30 06:08:09;;;;;;;12.15;1.92;;;;;;;;;;5011014;28;20045;-74
2023/05/30 06:10:35;;;;;;;11.20;2.40;;;;;;;;;;5010178;28;20057;-74
2023/05/30 06:13:01;;;;;;;11.90;2.53;;;;;;;;;;5006289;28;20582;-74
2023/05/30 06:15:27;;;;;;;13.10;2.65;;;;;;;;;;5010912;28;20045;-73
2023/05/30 06:17:53;;;;;;;9.43;1.92;;;;;;;;;;5003008;28;20075;-73
2023/05/30 06:20:19;;;;;;;15.18;2.60;;;;;;;;;;5010988;28;20084;-72
2023/05/30 06:22:45;;;;;;;10.43;2.28;;;;;;;;;;4992677;28;20057;-69
2023/05/30 06:25:12;;;;;;;7.93;1.92;;;;;;;;;;4988054;28;20061;-77
2023/05/30 06:27:38;;;;;;;7.78;2.60;;;;;;;;;;5012503;28;20050;-75
2023/05/30 06:30:05;;;;;;;7.63;2.15;;;12.60;93.60;;;;;;5011117;28;20050;-75
2023/05/30 06:32:32;;;;;;;11.10;2.40;;;;;;;;;;4990491;28;20041;-71
2023/05/30 06:34:58;;;;;;;13.25;2.63;;;;;;;;;;4998669;28;20456;-77
2023/05/30 06:37:24;;;;;;;8.65;2.10;;;;;;;;;;4990924;28;20116;-79
2023/05/30 06:39:50;;;;;;;8.18;1.63;;;;;;;;;;5014116;28;20145;-79
2023/05/30 06:42:16;;;;;;;10.40;3.10;;;;;;;;;;5001939;28;20072;-72
2023/05/30 06:44:42;;;;;;;4.97;1.60;;;;;;;;;;5014714;28;20081;-74
2023/05/30 06:47:08;;;;;;;9.10;2.10;;;;;;;;;;5002021;28;20053;-75
2023/05/30 06:49:35;;;;;;;10.57;2.35;;;;;;;;;;5011997;28;20064;-69
2023/05/30 06:52:01;;;;;;;4.82;1.90;;;;;;;;;;5013925;28;20057;-82
2023/05/30 06:54:27;;;;;;;7.75;1.88;;;;;;;;;;4994137;28;20092;-80
2023/05/30 06:56:53;;;;;;;9.60;2.33;;;;;;;;;;5013728;28;20419;-76
2023/05/30 06:59:19;;;;;;;6.47;1.98;;;;;;;;;;5008427;28;20521;-76
2023/05/30 07:01:46;;;;;;;8.75;2.63;;;12.90;94.00;;;;;;5012436;28;20103;-71
2023/05/30 07:04:12;;;;;;;5.90;2.22;;;;;;;;;;4986308;28;20061;-75
2023/05/30 07:06:38;;;;;;;7.65;2.03;;;;;;;;;;5012470;28;20034;-75
2023/05/30 07:09:04;;;;;;;6.53;2.20;;;;;;;;;;5013362;28;20056;-71
2023/05/30 07:11:30;;;;;;;7.57;2.25;;;;;;;;;;5009711;28;20737;-75
2023/05/30 07:13:57;;;;;;;7.75;2.13;;;;;;;;;;4983510;28;20799;-77
2023/05/30 07:16:23;;;;;;;5.18;1.75;;;;;;;;;;5012193;28;20045;-75
2023/05/30 07:18:49;;;;;;;10.60;2.13;;;;;;;;;;5008608;28;20596;-77
2023/05/30 07:21:15;;;;;;;7.15;2.45;;;;;;;;;;4997007;28;20053;-74
2023/05/30 07:23:41;;;;;;;9.00;2.13;;;;;;;;;;5008399;28;20128;-77
2023/05/30 07:26:07;;;;;;;10.98;2.10;;;;;;;;;;5008227;28;20107;-72
2023/05/30 07:28:33;;;;;;;5.93;1.70;;;;;;;;;;5012227;28;20041;-71
2023/05/30 07:31:00;;;;;;;5.05;1.70;;;;;;;;;;4993701;28;20057;-80
2023/05/30 07:33:26;;;;;;;8.07;2.63;;;;;;;;;;5008956;28;20041;-77
2023/05/30 07:35:52;;;;;;;6.93;1.80;;;;;;;;;;5007730;28;20081;-78
2023/05/30 07:38:18;;;;;;;8.15;1.73;;;;;;;;;;5008030;28;20049;-75
2023/05/30 07:40:44;;;;;;;6.07;1.35;;;;;;;;;;4993009;28;20049;-74
2023/05/30 07:43:10;;;;;;;4.88;1.25;;;;;;;;;;5010943;28;20502;-74
2023/05/30 07:45:36;;;;;;;4.85;1.63;;;;;;;;;;5005262;28;20045;-74
2023/05/30 07:48:05;;;;;;;6.00;0.98;;;;;;;;;;5002397;28;20122;-71
2023/05/30 07:50:31;;;;;;;4.22;1.50;;;;;;;;;;4997622;28;20060;-74
2023/05/30 07:52:58;;;;;;;7.30;2.67;;;;;;;;;;5007950;28;20045;-69
2023/05/30 07:55:26;;;;;;;4.50;1.52;;;13.80;93.60;;;;;;5002704;28;20054;-77
2023/05/30 07:57:52;;;;;;;5.25;1.23;;;;;;;;;;5012169;28;20049;-79
2023/05/30 08:00:18;;;;;;;7.60;0.80;;;;;;;;;;4995620;28;20057;-78
2023/05/30 08:02:44;;;;;;;3.60;0.68;;;;;;;;;;5011756;28;20049;-73
2023/05/30 08:05:10;;;;;;;7.97;2.47;;;;;;;;;;5004382;28;20079;-73
2023/05/30 08:07:36;;;;;;;4.45;1.05;;;;;;;;;;4994442;28;20165;-72
2023/05/30 08:10:03;;;;;;;4.55;1.10;;;;;;;;;;5004762;28;20783;-71
2023/05/30 08:12:29;;;;;;;5.20;0.95;;;;;;;;;;5000416;28;20061;-78
2023/05/30 08:14:56;;;;;;;2.88;0.80;;;14.30;93.60;;;;;;4997023;28;20042;-72
2023/05/30 08:17:27;;;;;;;3.95;1.20;;;;;;;;;;5008001;28;20053;-74
2023/05/30 08:19:57;;;;;;;4.75;0.98;;;;;;;;;;5011138;28;20068;-75
2023/05/30 08:22:23;;;;;;;4.95;1.63;;;14.70;93.00;;;;;;4991036;28;20738;-77
2023/05/30 08:24:50;;;;;;;9.32;0.93;;;;;;;;;;5002432;28;20056;-69
2023/05/30 08:27:17;;;;;;;4.53;1.27;;;15.20;92.60;;;;;;5001388;28;20053;-78
2023/05/30 08:29:43;;;;;;;3.17;0.77;;;;;;;;;;4978203;28;20049;-78
2023/05/30 08:32:10;;;;;;;4.13;0.63;;;;;;;;;;5010441;28;20132;-73
2023/05/30 08:34:36;;;;;;;1.95;0.40;;;;;;;;;;5001607;28;20045;-73
2023/05/30 08:37:03;;;;;;;3.72;1.05;;;;;;;;;;5011173;28;20928;-72
2023/05/30 08:39:29;;;;;;;2.33;0.75;;;;;;;;;;5011355;28;20049;-79
2023/05/30 08:41:55;;;;;;;1.63;0.47;;;;;;;;;;5008865;28;20049;-80
2023/05/30 08:44:21;;;;;;;2.35;0.52;;;;;;;;;;5001214;28;20050;-78
2023/05/30 08:46:47;;;;;;;3.97;0.50;;;14.90;91.50;;;;;;4984970;28;20176;-77
2023/05/30 08:49:17;;;;;;;3.42;0.93;;;14.60;91.30;;;;;;5000407;28;20133;-70
2023/05/30 08:51:43;;;;;;;2.90;0.80;;;14.90;91.40;;;;;;5003249;28;20060;-78
2023/05/30 08:54:17;;;;;;;4.25;0.73;;;14.90;91.30;;;;;;5008827;28;20057;-73
2023/05/30 08:56:47;;;;;;;2.50;0.52;;;14.80;91.50;;;;;;5007819;28;20053;-71
2023/05/30 08:59:14;;;;;;;3.75;0.50;;;;;;;;;;4988303;28;20367;-70
2023/05/30 09:01:40;;;;;;;3.67;0.75;;;;;;;;;;5005578;28;20041;-75
2023/05/30 09:04:08;;;;;;;7.00;0.80;;;;;;;;;;4993832;28;20062;-79
2023/05/30 09:06:37;;;;;;;0.93;0.30;;;14.80;91.40;;;;;;5010678;28;20049;-77
2023/05/30 09:09:03;;;;;;;1.23;0.30;;;;;;;;;;4998286;28;20131;-75
2023/05/30 09:11:30;;;;;;;4.47;0.40;;;;;;;;;;5002148;28;20054;-71
2023/05/30 09:13:56;;;;;;;2.05;0.38;;;;;;;;;;5003883;28;20038;-78
2023/05/30 09:16:22;;;;;;;2.08;0.20;;;;;;;;;;4989080;28;20057;-73
2023/05/30 09:18:48;;;;;;;2.53;0.28;;;;;;;;;;4992161;28;20061;-72
2023/05/30 09:21:15;;;;;;;1.75;0.30;;;15.30;91.20;;;;;;5000591;28;20554;-69
2023/05/30 09:23:42;;;;;;;1.75;0.22;;;15.30;91.00;;;;;;5001080;28;20053;-74
2023/05/30 09:26:13;;;;;;;4.28;0.50;;;;;;;;;;5004480;28;20049;-77
2023/05/30 09:28:39;;;;;;;3.60;0.40;;;;;;;;;;4997214;28;20064;-77
2023/05/30 09:31:05;;;;;;;1.35;0.45;;;;;;;;;;5007900;28;20057;-80
2023/05/30 09:33:44;;;;;;;2.15;0.50;;;15.40;91.90;;;;;;4988171;28;20410;-72
2023/05/30 09:36:18;;;;;;;3.40;0.35;;;15.10;91.10;;;;;;4983799;28;20045;-73
2023/05/30 09:38:58;;;;;;;4.18;0.47;;;15.10;91.10;;;;;;5005125;28;20544;-78
2023/05/30 09:41:26;;;;;;;3.20;0.50;;;15.10;91.30;;;;;;5003456;28;20126;-74
2023/05/30 09:43:53;;;;;;;1.45;0.40;;;15.10;91.30;;;;;;4998210;28;20088;-70
2023/05/30 09:46:27;;;;;;;4.55;0.85;;;15.10;91.30;;;;;;4999196;28;20058;-76
2023/05/30 09:48:53;;;;;;;1.90;0.50;;;;;;;;;;5002856;28;20050;-75
2023/05/30 09:51:21;;;;;;;3.30;1.15;;;15.30;91.00;;;;;;5010936;28;20119;-70
2023/05/30 09:54:04;;;;;;;2.90;0.50;;;15.30;91.20;;;;;;5008169;28;20698;-76
2023/05/30 09:56:35;;;;;;;3.00;0.60;;;15.50;91.30;;;;;;5002353;28;20061;-78
2023/05/30 09:59:09;;;;;;;4.40;0.30;;;15.50;91.20;;;;;;4999417;28;20879;-72
2023/05/30 10:01:45;;;;;;;0.85;0.30;;;;;;;;;;5009233;28;20296;-77
2023/05/30 10:04:11;;;;;;;0.98;0.30;;;15.90;90.60;;;;;;5015360;28;20057;-76
2023/05/30 10:06:41;;;;;;;0.88;0.20;;;15.90;90.60;;;;;;4993449;28;20057;-70
2023/05/30 10:09:07;;;;;;;0.50;0.20;;;;;;;;;;5011839;28;20062;-74
2023/05/30 10:11:34;;;;;;;1.40;0.20;;;16.20;92.60;;;;;;4997846;28;20908;-71
2023/05/30 10:14:00;;;;;;;1.40;0.20;;;;;;;;;;5003285;28;20776;-73
2023/05/30 10:16:30;;;;;;;1.90;0.40;;;16.00;90.60;;;;;;5001407;28;20048;-71
2023/05/30 10:18:59;;;;;;;1.20;0.17;;;16.00;90.60;;;;;;5009801;28;20761;-73
2023/05/30 10:21:27;;;;;;;0.45;0.20;;;16.00;90.40;;;;;;4982720;28;20057;-72
2023/05/30 10:23:54;;;;;;;2.58;0.20;;;;;;;;;;4989822;28;20049;-76
2023/05/30 10:26:27;;;;;;;2.97;0.40;;;16.10;89.90;;;;;;5005537;28;20050;-81
2023/05/30 10:28:54;;;;;;;1.23;0.30;;;16.00;89.70;;;;;;4994813;28;20061;-78
2023/05/30 10:31:22;;;;;;;1.88;0.30;;;15.80;89.70;;;;;;5013536;28;20061;-74
2023/05/30 10:33:50;;;;;;;1.92;0.30;;;;;;;;;;4996237;28;20048;-71
2023/05/30 10:36:17;;;;;;;4.47;0.95;;;15.70;89.70;;;;;;5005194;28;20168;-77
2023/05/30 10:39:38;;;;;;;0.75;0.20;;;15.50;89.70;;;;;;5011719;28;20084;-78
2023/05/30 10:42:14;;;;;;;2.15;0.30;;;15.40;90.20;;;;;;4991095;28;20053;-79
2023/05/30 10:44:43;;;;;;;1.70;0.20;;;;;;;;;;5004490;28;20613;-74
2023/05/30 10:47:22;;;;;;;2.45;0.30;;;13.70;89.20;;;;;;5001174;28;20062;-72
2023/05/30 10:49:49;;;;;;;4.95;0.82;;;;;;;;;;5010338;28;20077;-72
2023/05/30 10:52:17;;;;;;;2.00;0.43;;;;;;;;;;5003788;28;20046;-78
2023/05/30 10:54:46;;;;;;;1.05;0.20;;;;;;;;;;4987797;28;20041;-76
2023/05/30 10:57:23;;;;;;;1.38;0.30;;;15.60;90.30;;;;;;4987468;28;20108;-72
2023/05/30 10:59:49;;;;;;;2.42;0.30;;;;;;;;;;4988924;28;20073;-75
2023/05/30 11:02:20;;;;;;;0.80;0.20;;;;;;;;;;5007286;28;20060;-75
2023/05/30 11:04:50;;;;;;;2.88;0.43;;;15.70;90.00;;;;;;5004570;28;20060;-80
2023/05/30 11:07:17;;;;;;;3.28;0.68;;;16.00;89.80;;;;;;4992320;28;20045;-76
2023/05/30 11:10:01;;;;;;;1.73;0.40;;;16.00;89.20;;;;;;4990496;28;20055;-79
2023/05/30 11:12:27;;;;;;;3.33;0.60;;;;;;;;;;5008990;28;20545;-74
2023/05/30 11:15:00;;;;;;;2.30;0.60;;;16.60;88.50;;;;;;5011955;28;20128;-77
2023/05/30 11:17:51;;;;;;;2.53;0.30;;;16.70;87.90;;;;;;5002653;28;20046;-73
2023/05/30 11:20:22;;;;;;;1.48;0.52;;;18.10;87.80;;;;;;5018012;28;20132;-71
2023/05/30 11:23:03;;;;;;;4.22;1.85;;;17.40;86.30;;;;;;5007260;28;20052;-73
2023/05/30 11:25:33;;;;;;;1.92;0.50;;;17.60;85.50;;;;;;5011025;28;20063;-78
2023/05/30 11:28:05;;;;;;;2.92;0.50;;;17.70;84.30;;;;;;5013876;28;20049;-78
2023/05/30 11:30:37;;;;;;;2.13;0.60;;;17.80;83.90;;;;;;4997506;28;20049;-70
2023/05/30 11:33:11;;;;;;;2.28;0.38;;;17.70;83.70;;;;;;4989760;28;20391;-72
2023/05/30 11:35:38;;;;;;;1.92;0.57;;;;;;;;;;5012582;28;20839;-75
2023/05/30 11:38:06;;;;;;;2.25;0.52;;;;;;;;;;5006360;28;20130;-75
2023/05/30 11:40:32;;;;;;;2.17;0.40;;;;;;;;;;4995937;28;20095;-78
2023/05/30 11:42:58;;;;;;;1.70;0.40;;;;;;;;;;5012647;28;20144;-71
2023/05/30 11:45:29;;;;;;;1.38;0.60;;;17.60;83.60;;;;;;5012095;28;20064;-74
2023/05/30 11:48:11;;;;;;;1.77;0.50;;;17.70;82.50;;;;;;4995847;28;20065;-72
2023/05/30 11:50:41;;;;;;;2.95;0.80;;;17.70;82.90;;;;;;5002747;28;20050;-77
2023/05/30 11:53:14;;;;;;;1.10;0.30;;;17.70;83.10;;;;;;5003713;28;20050;-74
2023/05/30 11:55:44;;;;;;;3.90;0.50;;;17.70;82.90;;;;;;4983912;28;20061;-73
2023/05/30 11:58:11;;;;;;;2.90;1.25;;;;;;;;;;4990827;28;20065;-75
2023/05/30 12:00:41;;;;;;;2.00;0.40;;;17.60;81.50;;;;;;5004128;28;20061;-77
2023/05/30 12:03:08;;;;;;;2.40;0.60;;;;;;;;;;5006191;28;20843;-69
2023/05/30 12:05:34;;;;;;;4.25;0.30;;;;;;;;;;4988806;28;20053;-78
2023/05/30 12:08:05;;;;;;;2.25;0.60;;;18.00;81.20;;;;;;5012958;28;20511;-74
2023/05/30 12:10:31;;;;;;;2.88;0.40;;;;;;;;;;5011078;28;20885;-80
2023/05/30 12:12:57;;;;;;;3.40;0.32;;;;;;;;;;5011242;28;20061;-76
2023/05/30 12:15:24;;;;;;;2.42;0.30;;;18.50;79.50;;;;;;5009834;28;20056;-73
2023/05/30 12:17:51;;;;;;;2.00;0.30;;;;;;;;;;5003660;28;20049;-77
2023/05/30 12:20:18;;;;;;;1.45;0.30;;;;;;;;;;5004171;28;20045;-75
2023/05/30 12:22:44;;;;;;;1.10;0.45;;;;;;;;;;4993536;28;20061;-73
2023/05/30 12:25:11;;;;;;;0.82;0.30;;;;;;;;;;4993511;28;20411;-73
2023/05/30 12:27:49;;;;;;;0.60;0.20;;;19.50;76.10;;;;;;5005932;28;20065;-72
2023/05/30 12:30:17;;;;;;;1.38;0.30;;;19.70;75.20;;;;;;5014845;28;20141;-79
2023/05/30 12:32:44;;;;;;;0.70;0.20;;;;;;;;;;4985664;28;20046;-76
2023/05/30 12:35:11;;;;;;;1.40;0.30;;;;;;;;;;5002454;28;20053;-72
2023/05/30 12:37:37;;;;;;;3.42;0.30;;;;;;;;;;5008094;28;20045;-80
2023/05/30 12:40:05;;;;;;;2.15;0.45;;;19.50;74.70;;;;;;5007935;28;20546;-75
2023/05/30 12:42:32;;;;;;;1.00;0.20;;;;;;;;;;4989543;28;20049;-74
2023/05/30 12:45:00;;;;;;;1.17;0.20;;;19.20;74.10;;;;;;4997136;28;20050;-75
2023/05/30 12:47:27;;;;;;;0.75;0.30;;;19.10;74.50;;;;;;5007928;28;20057;-77
2023/05/30 12:49:54;;;;;;;1.02;0.30;;;19.00;74.70;;;;;;4994096;28;20414;-74
2023/05/30 12:52:23;;;;;;;1.48;0.30;;;18.90;74.90;;;;;;4989586;28;20038;-77
2023/05/30 12:54:49;;;;;;;0.90;0.30;;;18.90;74.40;;;;;;4995540;28;20151;-74
2023/05/30 12:57:19;;;;;;;1.15;0.35;;;19.00;74.50;;;;;;5012261;28;20041;-76
2023/05/30 12:59:46;;;;;;;1.05;0.30;;;;;;;;;;5012420;28;20406;-71
2023/05/30 13:02:12;;;;;;;3.25;0.38;;;;;;;;;;4991278;28;20076;-76
2023/05/30 13:04:38;;;;;;;1.23;0.40;;;;;;;;;;5012185;28;20142;-71
2023/05/30 13:07:08;;;;;;;2.30;0.30;;;19.10;74.50;;;;;;5003693;28;20054;-74
2023/05/30 13:09:34;;;;;;;1.20;0.40;;;;;;;;;;5008010;28;20065;-77
2023/05/30 13:12:00;;;;;;;1.73;0.32;;;;;;;;;;5005557;28;20045;-73
2023/05/30 13:14:26;;;;;;;0.93;0.30;;;;;;;;;;5006352;28;20077;-71
2023/05/30 13:16:52;;;;;;;3.05;0.30;;;;;;;;;;5001554;28;20053;-74
2023/05/30 13:19:19;;;;;;;1.17;0.65;;;;;;;;;;5006261;28;20731;-73
2023/05/30 13:21:45;;;;;;;1.38;0.50;;;;;;;;;;5011273;28;20558;-81
2023/05/30 13:24:11;;;;;;;1.08;0.30;;;;;;;;;;5001462;28;20041;-74
2023/05/30 13:26:37;;;;;;;1.80;0.50;;;;;;;;;;4994507;28;20380;-75
2023/05/30 13:29:04;;;;;;;1.63;0.28;;;17.30;72.10;;;;;;5007528;28;20139;-72
2023/05/30 13:31:31;;;;;;;1.20;0.30;;;;;;;;;;4986064;28;20045;-69
2023/05/30 13:33:57;;;;;;;1.02;0.30;;;;;;;;;;5000039;28;20045;-76
2023/05/30 13:36:25;;;;;;;1.58;0.30;;;;;;;;;;5007045;28;20060;-73
2023/05/30 13:38:51;;;;;;;1.58;0.40;;;;;;;;;;5011475;28;20045;-74
2023/05/30 13:41:18;;;;;;;1.67;0.60;;;;;;;;;;5002066;28;20590;-71
2023/05/30 13:43:44;;;;;;;1.58;0.43;;;;;;;;;;4999082;28;20061;-73
2023/05/30 13:46:10;;;;;;;2.00;0.32;;;;;;;;;;4993216;28;20178;-76
2023/05/30 13:48:36;;;;;;;1.55;0.50;;;;;;;;;;4988073;28;20056;-76
2023/05/30 13:51:03;;;;;;;3.85;0.98;;;;;;;;;;4999063;28;20103;-75
2023/05/30 13:53:29;;;;;;;3.60;0.50;;;;;;;;;;5004997;28;20595;-74
2023/05/30 13:55:55;;;;;;;2.42;0.43;;;;;;;;;;5000709;28;20100;-74
2023/05/30 13:58:22;;;;;;;1.85;0.30;;;18.60;73.50;;;;;;5000554;28;20068;-72
2023/05/30 14:00:48;;;;;;;1.88;0.32;;;;;;;;;;5010594;28;20121;-76
2023/05/30 14:03:14;;;;;;;1.20;0.20;;;;;;;;;;4998290;28;20057;-75
2023/05/30 14:05:40;;;;;;;2.75;1.50;;;;;;;;;;5004616;28;20127;-73
2023/05/30 14:08:07;;;;;;;2.72;0.38;;;;;;;;;;5003724;28;20787;-72
2023/05/30 14:10:33;;;;;;;0.90;0.35;;;;;;;;;;4988558;28;20613;-72